Ngày 23-10-2017

| Trang chủ | SiteMap | Bản đồ-VN |

  Tin tức - Sự kiện

  Dự báo thời tiết  

  Thời tiết SÂN BAY

  Ảnh mây vệ tinh

  Động đất-Sóng thần

  Biến đổi khí hậu

  Phổ biến kiến thức

  Sản phẩm và dịch vụ

  Tổng hợp e-Weather

  Photo-Video-Media

  Thống kê bài đọc (*)

Earthquake/Tsunami map


See net-traffic

www.thoitiet.net
Sản phẩm và dịch vụ

Bản tin thời tiết hiện tại tại sân bay (METAR bulletin)

Cập nhật: 2/9/2009, 17:43.  So lan doc: 35887

Mã sân bay: Nội bài (VVNB), Đà nẵng (VVDN), Tân Sơn Nhất (VVTS)
Xem bản đồ thời tiết sân bay Việt Nam
Danh sách các sân bay của ICAO có thể xem trong ICAO AirportList

METAR VVNB 040530Z VRB02MPS 7000 FEW023 21/11 Q1018 NOSIG
METAR
VVNB 040600Z 13003MPS 100V170 7000 SKC 21/09 Q1018 NOSIG
METAR
VVNB 040630Z 14003MPS 100V180 6000 SKC 21/10 Q1017 NOSIG
METAR VVNB 040700Z VRB03MPS 6000 SKC 22/10 Q1017 NOSIG
METAR VVNB 040730Z 13003MPS 070V190 6000 SKC 22/11 Q1016 NOSIG
METAR VVNB 040800Z 12003MPS 7000 SKC 22/09 Q1016 NOSIG
METAR VVNB 040830Z 12003MPS 070V150 7000 SKC 22/11 Q1015 NOSIG
METAR VVNB 040900Z 11004MPS 080V140 9000 SKC 22/10 Q1015 NOSIG
METAR VVNB 040930Z 11004MPS 9000 SKC 22/10 Q1015 NOSIG
METAR VVNB 041000Z 12004MPS CAVOK 21/09 Q1015 NOSIG

Bình luận (FB account) bài viết (Thoitiet.NET):

  Back to Prev Quay lại
* Mục lục tin:
id_11076 (#<i>7086</i>) Album Gặp gỡ ICT Xuân Bính thân 2016 (21/3/2016)
id_9722 (#<i>9776</i>) Toàn cảnh Gặp gỡ ICT Xuân Ất Mùi 2015 (12/3/2015)
id_9671 (#<i>4910</i>) GẶP GỠ ICT XUÂN ẤT MÙI - 2015 (VAIP) (5/3/2015)
id_9321 (#<i>6753</i>) Khai mạc Triển lãm quốc tế về ngành cấp thoát nước lần thứ 6 (20/11/2014)
id_9041 (#<i>8992</i>) Triển lãm Vietwater 2014 tiến hành từ 12-14/11/2014 tại Trung tâm Hội nghị Triển lãm Tp HCM (SECC) (14/10/2014)
id_9188 (#<i>2879</i>) Lễ kỷ niệm 20 năm thành lập và Đại hội Đại biểu toàn quốc lần thứ IV Hội Tự động hóa Việt Nam (14/10/2014)
id_9145 (#<i>3455</i>) THÔNG BÁO: Đại hội IV Hội Tự động hoá Việt Nam sẽ diễn ra ngày 11 tháng 10 năm 2014 (30/9/2014)
id_8011 (#<i>11761</i>) Triển lãm VietWater 2013 tại TP HCM ngày 16-18/10/2013 (23/9/2013)
id_7323 (#<i>15980</i>) MyWorldWeather - ứng dụng miễn phí điện thoại di động dự báo thời tiết (WMO) (14/2/2013)
id_6829 (#<i>12875</i>) Triển lãm VietWater 2012 tại Hà Nội ngày 6-8/11/2012 (10/10/2012) Next to Page 2

Mục tin khác:

ThoitietVietnam.VN
[Tin tức-Sự kiện] [Dự báo thời tiết] [Happy Weekend]
[Thời tiết sân bay] [Biến đổi khí hậu] [Động đất-Sóng thần] [Phổ biến kiến thức]
[Sản phẩm và dịch vụ] [Giải pháp e-Weather] [Ảnh-Video-Multimedia] [Bản đồ Web]
[Bản đồ biển Đông] [GRIB/BUFR-Demo] [Aurie-18E Demo] [Dự báo MM5] [RAMS-VNU Demo]
free counters
Tin nổi bật
  • NHẬN ĐỊNH XU THẾ THỜI TIẾT THÁNG 8 NĂM 2017 (1533)
  • NHẬN ĐỊNH XU THẾ THỜI TIẾT THÁNG 7 NĂM 2017 (947)
  • Bản đồ NOAA, Nhiệt độ khu vực Châu Á-Vietnam tháng 5/2017 & MUSIC (1809)
  • Đăng ký thành viên ThờiTiết.NET (Online REG) (22249)
  • BẢN TIN CẬP NHẬT VỀ HIỆN TƯỢNG ENSO VÀ TÌNH HÌNH KHÍ TƯỢNG THỦY VĂN (1310)
  • PHÂN CẤP TRÁCH NHIỆM VÀ PHỐI HỢP TRONG ỨNG PHÓ THIÊN TAI (1735)
  • VIdeo Clip: Vanessa Mae-The Red Hot Tour, Live at the Royal Albert Hall (10037)
  • KỸ NĂNG DỰ BÁO THỜI TIẾT – HOW TO FORECAST THE WEATHER? (1668)
  • LUẬT KHÍ TƯỢNG THỦY VĂN (6432)
  • VIdeo Clip: Mozart Sonata in C Major and others (4350)
  • Ảnh các icons cho Cut and Paste Decors (Version 2) (4135)
  • Message from M. Jarraud, “World Meteorological Day 2015 – Climate knowledge for climate action” (5820)
  • Một số video về cơn bão Kalmaegi (7273)
  • Nhiệt độ bề mặt biển trên toàn thế giới trong 5 năm qua! (7977)
  • Typhoon Clips for Review and Evaluation (8881)
  • Video clip ve Tsunami (NOAA) (10701)
  • EL NIÑO/LA NIÑA (8053)
  • Super Typhoon Haiyan - CNN (11471)
  • Hải Yến là một trong 4 siêu bão khủng khiếp nhất lịch sử nhân loại (21300)
  • Music (and Weather) Collection by Nguyen Viet Trung (Dec 2012) (12997)
  • El Niño / La Niña (8562)
  • Ô nhiễm môi trường và video khiến cả thế giới im lặng (16061)
  • Hệ thống giám sát mực nước tự động Scada-H/Scada-X sử dụng công nghệ GSM/openGIS (28341)
  • Google Earth/Sky/Mars 3D Visualization (25675)
  • Tuyển tập Cơ sở dữ liệu Bão trên bản đồ Google Map (43434)
  • GIỚI THIỆU HỆ THỐNG HYDROSYS-VN (16000)
  • Dự báo 3 ngày bằng mô hình RAMS (DEMO) (21126)
  • Bản tin thời tiết hiện tại tại sân bay (METAR bulletin) (35888)
  • Triển khai thành công hệ thống cơ sở dữ liệu khí tượng Hàng không Gia Lâm (KTHK-net 3.0) (37791)
  • Bản tin triều-ngập lụt

    Thời tiết thường thức
    id_12656 (#<i>1621</i>) Các cơn bão ở Thái Bình Dương được đặt tên thế nào? (26/7)
    id_12633 (#<i>619</i>) Phát sai dự báo thiên tai bị phạt tới 50 triệu đồng (21/7)
    id_12617 (#<i>625</i>) PHÒNG TRÁNH SÉT ĐÁNH KHI MƯA GIÔNG (18/7)
    id_12340 (#<i>2700</i>) MỘT SỐ ĐIỀU CẦN LÀM ĐỂ CHỦ ĐỘNG PHÒNG TRÁNH BÃO VÀ CÁC HIỆN TƯỢNG THỜI TIẾT NGUY HIỂM DO BÃO GÂY RA (19/4) Next to Page 2

    Music ON - Stop
    Theo Bạn, kênh thời tiết nào hữu ích trên Internet?
    Thời tiết qua Email
    Tin nhắn (SMS)
    Qua website
    Không cần thiết
    [ Xem KQ ]
    Quảng bá Logos
    UOW Alumni Chapter of Vietnam Du bao theo RAMS-VNU RAMS-model Technoaid Vietnam CIFPEN









    Tin thời tiết
    Tin bão

    Trở về đầu trang Tro ve dau trang 

    Số trực tuyến: 21705
    Hôm nay: 21705-Hôm qua: 0
    Tháng 10: 21705
    Tổng số truy nhập
    45,873,307
    No# of News: 9,244
    No# of readings: 41,857,380
    Max Reading News: ,203,460
     

    ThoitietVietnam.VN
    Copyright 2004-2013 All Rights Reserved - Tổng hợp từ Internet
    Phát triển bởi InteCom - Technoaid Vietnam - Powered by MVC-Web CMS 1.2
    Trụ sở: Số 72 Ngõ 95/8, Chùa Bộc, Đống Đa, Hà Nội - Tel: 04-35641864 - Fax: 04-35641865
    thoitietnet@gmail.com - info@thoitiet.net - intecom@minhviet.com.vn - minhvietsoft@yahoo.com